首页
METAR-TAF:

METAR-TAF

机场 :

索尔诺克, 匈牙利

纬度: 47-07N, 经度: 020-14E, 海拔: 89米

当前天气观测

该预报发布于16分钟前的06:45 UTC
风速8节,风向西北,在西北转西北之间变化
温度 14°C
湿度 100%
气压 1015 hPa
能见度10公里或以上
少量云层高于800英尺
散云层高于4000英尺
阴天层高于7000英尺
小雨

METAR: LHSN 070645Z 31008KT 280V340 9999 -RA FEW008 SCT040 OVC070 14/14 Q1015 BECMG FM0730 NSW RMK BLU

时间: 09:01 (07:01 UTC)

预报

该预报发布于1小时和46分钟前的05:15 UTC
预报有效从07日的 06点(UTC)到 07日的 15点(UTC)
风速12节,风向北转西北
能见度10公里或以上
少量云层高于2500英尺
多云层高于4000英尺
阴天层高于7000英尺
小雨
短暂存在
从 07日的 06点(UTC)到 07日的 09点(UTC)
能見度: 6000
散云层高于1000英尺
多云层高于2500英尺
阴天层高于3300英尺
雨, 阵雨
成为
从 07日的 08点(UTC)到 07日的 11点(UTC)
风速7节,风向
散云层高于4000英尺
散云层高于8300英尺
几率 30% :
短暂存在
从 07日的 12点(UTC)到 07日的 15点(UTC)
能見度: 8000
散云层高于3300英尺, 塔状积云.
多云层高于5000英尺
阵雨
成为
从 07日的 13点(UTC)到 07日的 15点(UTC)
风速3节,风向多变

TAF: LHSN 070515Z 0706/0715 33012KT 9999 -RA FEW025 BKN040 OVC070 TEMPO 0706/0709 6000 RA SHRA SCT010 BKN025 OVC033 BECMG 0708/0711 36007KT NSW SCT040 SCT083 PROB30 TEMPO 0712/0715 8000 SHRA SCT033TCU BKN050 BECMG 0713/0715 VRB03KT

超过4000个机场的气象观测和天气预报(METAR&TAF报告)。

可查询的气象台以黄色和红色小点在地图上表示。

将鼠标移到小点上方,可查看气象台名称。

然后点击查看天气观测和预报。

如需切换地图:点击带黑十字的绿色按钮放大地图;点击带横线的绿色按钮缩小地图;或者点击绿色箭头查看邻近地区的地图。


METAR-TAF: